sensor_id;sensor_type;location;lat;lon;timestamp;pressure;altitude;pressure_sealevel;temperature;humidity
48926;BME280;39838;59.938;30.642;2022-11-15T00:00:00;101037.09;;;0.82;87.99
48926;BME280;39838;59.938;30.642;2022-11-15T00:02:32;101037.41;;;0.88;88.40
48926;BME280;39838;59.938;30.642;2022-11-15T00:04:59;101028.22;;;0.93;88.30
48926;BME280;39838;59.938;30.642;2022-11-15T00:07:26;101017.13;;;0.93;88.05
48926;BME280;39838;59.938;30.642;2022-11-15T00:09:53;101018.88;;;0.94;88.35
48926;BME280;39838;59.938;30.642;2022-11-15T00:12:20;101010.78;;;1.02;88.14
48926;BME280;39838;59.938;30.642;2022-11-15T00:14:47;101003.97;;;1.03;87.99
48926;BME280;39838;59.938;30.642;2022-11-15T00:17:14;100998.03;;;1.04;87.84
48926;BME280;39838;59.938;30.642;2022-11-15T00:19:43;100991.88;;;1.00;87.68
48926;BME280;39838;59.938;30.642;2022-11-15T00:22:10;100993.50;;;0.98;88.18
48926;BME280;39838;59.938;30.642;2022-11-15T00:24:37;100992.00;;;1.02;88.25
48926;BME280;39838;59.938;30.642;2022-11-15T00:27:04;100976.53;;;1.00;87.95
48926;BME280;39838;59.938;30.642;2022-11-15T00:29:31;100975.72;;;1.01;87.91
48926;BME280;39838;59.938;30.642;2022-11-15T00:31:58;100967.91;;;0.98;87.79
48926;BME280;39838;59.938;30.642;2022-11-15T00:34:25;100958.50;;;0.97;88.05
48926;BME280;39838;59.938;30.642;2022-11-15T00:36:54;100949.88;;;0.95;88.24
48926;BME280;39838;59.938;30.642;2022-11-15T00:39:21;100950.59;;;0.93;87.98
48926;BME280;39838;59.938;30.642;2022-11-15T00:41:48;100943.75;;;0.92;88.31
48926;BME280;39838;59.938;30.642;2022-11-15T00:44:15;100938.63;;;0.92;87.97
48926;BME280;39838;59.938;30.642;2022-11-15T00:46:43;100939.28;;;0.88;88.43
48926;BME280;39838;59.938;30.642;2022-11-15T00:49:10;100931.81;;;0.92;88.36
48926;BME280;39838;59.938;30.642;2022-11-15T00:51:37;100926.69;;;0.92;88.42
48926;BME280;39838;59.938;30.642;2022-11-15T00:54:05;100917.34;;;0.93;88.07
48926;BME280;39838;59.938;30.642;2022-11-15T00:56:32;100912.38;;;0.96;88.30
48926;BME280;39838;59.938;30.642;2022-11-15T00:59:00;100897.81;;;0.95;88.35
48926;BME280;39838;59.938;30.642;2022-11-15T01:01:27;100894.25;;;0.91;88.06
48926;BME280;39838;59.938;30.642;2022-11-15T01:03:54;100895.06;;;0.90;88.44
48926;BME280;39838;59.938;30.642;2022-11-15T01:06:21;100875.41;;;0.89;88.60
48926;BME280;39838;59.938;30.642;2022-11-15T01:08:48;100876.06;;;0.85;88.51
48926;BME280;39838;59.938;30.642;2022-11-15T01:11:16;100879.44;;;0.84;88.47
48926;BME280;39838;59.938;30.642;2022-11-15T01:13:44;100875.13;;;0.83;88.83
48926;BME280;39838;59.938;30.642;2022-11-15T01:16:13;100866.72;;;0.86;88.76
48926;BME280;39838;59.938;30.642;2022-11-15T01:18:40;100837.31;;;0.76;88.82
48926;BME280;39838;59.938;30.642;2022-11-15T01:21:09;100841.72;;;0.80;88.74
48926;BME280;39838;59.938;30.642;2022-11-15T01:23:36;100848.88;;;0.87;89.02
48926;BME280;39838;59.938;30.642;2022-11-15T01:26:06;100834.06;;;0.80;88.48
48926;BME280;39838;59.938;30.642;2022-11-15T01:28:36;100838.22;;;0.78;88.97
48926;BME280;39838;59.938;30.642;2022-11-15T01:31:06;100834.75;;;0.76;88.57
48926;BME280;39838;59.938;30.642;2022-11-15T01:33:34;100839.84;;;0.76;89.10
48926;BME280;39838;59.938;30.642;2022-11-15T01:36:04;100839.84;;;0.76;89.48
48926;BME280;39838;59.938;30.642;2022-11-15T01:38:31;100832.31;;;0.79;89.12
48926;BME280;39838;59.938;30.642;2022-11-15T01:40:58;100811.50;;;0.71;89.16
48926;BME280;39838;59.938;30.642;2022-11-15T01:43:28;100792.34;;;0.62;88.85
48926;BME280;39838;59.938;30.642;2022-11-15T01:46:00;100823.09;;;0.82;88.97
48926;BME280;39838;59.938;30.642;2022-11-15T01:48:32;100815.34;;;0.81;89.35
48926;BME280;39838;59.938;30.642;2022-11-15T01:51:03;100821.25;;;0.80;88.84
48926;BME280;39838;59.938;30.642;2022-11-15T01:53:34;100811.31;;;0.86;89.15
48926;BME280;39838;59.938;30.642;2022-11-15T01:56:05;100779.72;;;0.66;89.01
48926;BME280;39838;59.938;30.642;2022-11-15T01:58:33;100805.19;;;0.82;88.56
48926;BME280;39838;59.938;30.642;2022-11-15T02:01:02;100797.84;;;0.90;89.00
48926;BME280;39838;59.938;30.642;2022-11-15T02:03:34;100776.38;;;0.87;89.01
48926;BME280;39838;59.938;30.642;2022-11-15T02:06:04;100784.50;;;0.97;88.75
48926;BME280;39838;59.938;30.642;2022-11-15T02:08:32;100784.50;;;0.97;88.41
48926;BME280;39838;59.938;30.642;2022-11-15T02:10:59;100781.91;;;0.96;88.43
48926;BME280;39838;59.938;30.642;2022-11-15T02:13:26;100782.81;;;0.98;88.75
48926;BME280;39838;59.938;30.642;2022-11-15T02:15:59;100776.13;;;1.01;88.75
48926;BME280;39838;59.938;30.642;2022-11-15T02:18:35;100757.44;;;1.02;88.18
48926;BME280;39838;59.938;30.642;2022-11-15T02:21:14;100756.94;;;1.11;88.34
48926;BME280;39838;59.938;30.642;2022-11-15T02:24:16;100750.91;;;1.09;88.02
48926;BME280;39838;59.938;30.642;2022-11-15T02:32:43;100696.53;;;0.74;88.29
48926;BME280;39838;59.938;30.642;2022-11-15T02:35:17;100723.22;;;1.00;88.38
48926;BME280;39838;59.938;30.642;2022-11-15T02:37:51;100724.34;;;1.07;89.09
48926;BME280;39838;59.938;30.642;2022-11-15T02:40:26;100711.50;;;1.05;89.05
48926;BME280;39838;59.938;30.642;2022-11-15T02:42:57;100705.19;;;0.97;88.79
48926;BME280;39838;59.938;30.642;2022-11-15T02:45:47;100713.13;;;1.03;88.85
48926;BME280;39838;59.938;30.642;2022-11-15T02:48:19;100702.75;;;1.00;89.11
48926;BME280;39838;59.938;30.642;2022-11-15T02:50:48;100707.00;;;1.00;88.54
48926;BME280;39838;59.938;30.642;2022-11-15T02:53:15;100704.50;;;1.01;89.11
48926;BME280;39838;59.938;30.642;2022-11-15T02:55:44;100708.75;;;1.01;89.29
48926;BME280;39838;59.938;30.642;2022-11-15T02:58:47;100694.97;;;0.97;88.74
48926;BME280;39838;59.938;30.642;2022-11-15T03:01:24;100680.28;;;0.93;88.76
48926;BME280;39838;59.938;30.642;2022-11-15T03:04:04;100682.47;;;1.05;89.02
48926;BME280;39838;59.938;30.642;2022-11-15T03:06:44;100650.28;;;0.89;88.79
48926;BME280;39838;59.938;30.642;2022-11-15T03:09:13;100678.91;;;1.01;88.54
48926;BME280;39838;59.938;30.642;2022-11-15T03:11:48;100659.09;;;0.96;88.60
48926;BME280;39838;59.938;30.642;2022-11-15T03:14:21;100660.94;;;1.00;88.71
48926;BME280;39838;59.938;30.642;2022-11-15T03:16:53;100664.31;;;0.99;89.03
48926;BME280;39838;59.938;30.642;2022-11-15T03:19:31;100657.50;;;0.99;89.16
48926;BME280;39838;59.938;30.642;2022-11-15T03:22:01;100656.59;;;0.97;89.17
48926;BME280;39838;59.938;30.642;2022-11-15T03:24:30;100643.84;;;0.99;89.28
48926;BME280;39838;59.938;30.642;2022-11-15T03:27:00;100642.16;;;0.99;89.39
48926;BME280;39838;59.938;30.642;2022-11-15T03:29:33;100644.72;;;0.99;89.47
48926;BME280;39838;59.938;30.642;2022-11-15T03:32:04;100639.75;;;1.02;89.27
48926;BME280;39838;59.938;30.642;2022-11-15T03:34:38;100646.66;;;1.05;89.24
48926;BME280;39838;59.938;30.642;2022-11-15T03:37:07;100642.41;;;1.05;89.04
48926;BME280;39838;59.938;30.642;2022-11-15T03:39:35;100638.13;;;1.04;88.96
48926;BME280;39838;59.938;30.642;2022-11-15T03:42:10;100640.00;;;1.08;88.95
48926;BME280;39838;59.938;30.642;2022-11-15T03:44:46;100637.53;;;1.12;89.00
48926;BME280;39838;59.938;30.642;2022-11-15T03:47:19;100623.81;;;1.09;88.98
48926;BME280;39838;59.938;30.642;2022-11-15T03:49:51;100629.19;;;1.16;89.09
48926;BME280;39838;59.938;30.642;2022-11-15T03:52:20;100627.59;;;1.19;89.15
48926;BME280;39838;59.938;30.642;2022-11-15T03:54:49;100619.94;;;1.19;89.12
48926;BME280;39838;59.938;30.642;2022-11-15T03:57:17;100614.81;;;1.19;89.17
48926;BME280;39838;59.938;30.642;2022-11-15T03:59:44;100610.56;;;1.20;88.72
48926;BME280;39838;59.938;30.642;2022-11-15T04:02:11;100617.44;;;1.21;88.95
48926;BME280;39838;59.938;30.642;2022-11-15T04:04:39;100615.81;;;1.23;88.66
48926;BME280;39838;59.938;30.642;2022-11-15T04:07:07;100609.88;;;1.24;89.07
48926;BME280;39838;59.938;30.642;2022-11-15T04:09:34;100613.38;;;1.26;88.66
48926;BME280;39838;59.938;30.642;2022-11-15T04:12:23;100608.38;;;1.29;88.69
48926;BME280;39838;59.938;30.642;2022-11-15T04:14:58;100607.09;;;1.40;88.72
48926;BME280;39838;59.938;30.642;2022-11-15T04:17:35;100611.22;;;1.59;88.63
48926;BME280;39838;59.938;30.642;2022-11-15T04:20:03;100612.75;;;1.76;88.21
48926;BME280;39838;59.938;30.642;2022-11-15T04:22:52;100601.31;;;1.90;88.02
48926;BME280;39838;59.938;30.642;2022-11-15T04:25:36;100603.78;;;2.11;87.57
48926;BME280;39838;59.938;30.642;2022-11-15T04:28:04;100595.34;;;2.15;87.32
48926;BME280;39838;59.938;30.642;2022-11-15T04:30:31;100603.59;;;2.31;86.79
48926;BME280;39838;59.938;30.642;2022-11-15T04:32:58;100594.47;;;2.39;86.59
48926;BME280;39838;59.938;30.642;2022-11-15T04:35:25;100580.22;;;2.47;86.05
48926;BME280;39838;59.938;30.642;2022-11-15T04:37:54;100585.34;;;2.47;85.24
48926;BME280;39838;59.938;30.642;2022-11-15T04:40:21;100584.47;;;2.46;85.38
48926;BME280;39838;59.938;30.642;2022-11-15T04:42:48;100577.69;;;2.49;84.95
48926;BME280;39838;59.938;30.642;2022-11-15T04:45:15;100577.84;;;2.53;84.88
48926;BME280;39838;59.938;30.642;2022-11-15T04:47:43;100575.28;;;2.53;84.54
48926;BME280;39838;59.938;30.642;2022-11-15T04:50:11;100584.72;;;2.54;84.24
48926;BME280;39838;59.938;30.642;2022-11-15T04:52:40;100578.78;;;2.55;84.50
48926;BME280;39838;59.938;30.642;2022-11-15T04:55:10;100579.81;;;2.60;84.31
48926;BME280;39838;59.938;30.642;2022-11-15T04:57:38;100578.16;;;2.62;84.05
48926;BME280;39838;59.938;30.642;2022-11-15T05:00:08;100546.88;;;2.47;84.08
48926;BME280;39838;59.938;30.642;2022-11-15T05:02:36;100575.78;;;2.68;83.82
48926;BME280;39838;59.938;30.642;2022-11-15T05:05:25;100573.34;;;2.71;83.88
48926;BME280;39838;59.938;30.642;2022-11-15T05:07:52;100569.13;;;2.73;83.88
48926;BME280;39838;59.938;30.642;2022-11-15T05:10:21;100573.19;;;2.67;83.28
48926;BME280;39838;59.938;30.642;2022-11-15T05:12:48;100576.47;;;2.63;83.31
48926;BME280;39838;59.938;30.642;2022-11-15T05:15:15;100567.91;;;2.62;83.64
48926;BME280;39838;59.938;30.642;2022-11-15T05:17:43;100564.50;;;2.63;83.45
48926;BME280;39838;59.938;30.642;2022-11-15T05:20:10;100560.19;;;2.62;83.28
48926;BME280;39838;59.938;30.642;2022-11-15T05:22:38;100561.72;;;2.57;83.46
48926;BME280;39838;59.938;30.642;2022-11-15T05:25:06;100565.19;;;2.58;83.46
48926;BME280;39838;59.938;30.642;2022-11-15T05:27:35;100562.75;;;2.62;83.35
48926;BME280;39838;59.938;30.642;2022-11-15T05:30:02;100556.53;;;2.54;83.04
48926;BME280;39838;59.938;30.642;2022-11-15T05:32:30;100568.34;;;2.51;83.18
48926;BME280;39838;59.938;30.642;2022-11-15T05:34:57;100570.81;;;2.47;83.23
48926;BME280;39838;59.938;30.642;2022-11-15T05:37:24;100567.41;;;2.47;83.42
48926;BME280;39838;59.938;30.642;2022-11-15T05:39:51;100567.56;;;2.52;83.52
48926;BME280;39838;59.938;30.642;2022-11-15T05:42:18;100565.88;;;2.52;83.73
48926;BME280;39838;59.938;30.642;2022-11-15T05:44:48;100537.19;;;2.38;83.29
48926;BME280;39838;59.938;30.642;2022-11-15T05:47:18;100560.00;;;2.56;83.36
48926;BME280;39838;59.938;30.642;2022-11-15T05:49:50;100560.06;;;2.58;83.03
48926;BME280;39838;59.938;30.642;2022-11-15T05:52:22;100524.25;;;2.35;82.98
48926;BME280;39838;59.938;30.642;2022-11-15T05:54:50;100560.72;;;2.52;83.26
48926;BME280;39838;59.938;30.642;2022-11-15T05:57:18;100564.22;;;2.54;83.07
48926;BME280;39838;59.938;30.642;2022-11-15T05:59:46;100561.69;;;2.56;82.75
48926;BME280;39838;59.938;30.642;2022-11-15T06:02:13;100567.59;;;2.53;82.68
48926;BME280;39838;59.938;30.642;2022-11-15T06:04:40;100560.81;;;2.55;82.86
48926;BME280;39838;59.938;30.642;2022-11-15T06:07:07;100564.16;;;2.53;82.65
48926;BME280;39838;59.938;30.642;2022-11-15T06:09:35;100564.78;;;2.45;82.71
48926;BME280;39838;59.938;30.642;2022-11-15T06:12:02;100558.84;;;2.46;82.95
48926;BME280;39838;59.938;30.642;2022-11-15T06:14:29;100562.34;;;2.50;82.98
48926;BME280;39838;59.938;30.642;2022-11-15T06:16:58;100557.31;;;2.52;83.11
48926;BME280;39838;59.938;30.642;2022-11-15T06:19:25;100556.44;;;2.51;82.85
48926;BME280;39838;59.938;30.642;2022-11-15T06:21:52;100554.63;;;2.49;82.78
48926;BME280;39838;59.938;30.642;2022-11-15T06:24:19;100553.75;;;2.48;82.95
48926;BME280;39838;59.938;30.642;2022-11-15T06:26:46;100558.91;;;2.50;82.81
48926;BME280;39838;59.938;30.642;2022-11-15T06:29:13;100557.09;;;2.45;82.79
48926;BME280;39838;59.938;30.642;2022-11-15T06:31:40;100556.09;;;2.42;82.84
48926;BME280;39838;59.938;30.642;2022-11-15T06:34:09;100556.94;;;2.41;82.94
48926;BME280;39838;59.938;30.642;2022-11-15T06:36:36;100542.38;;;2.40;83.07
48926;BME280;39838;59.938;30.642;2022-11-15T06:39:04;100562.47;;;2.53;82.72
48926;BME280;39838;59.938;30.642;2022-11-15T06:41:33;100557.22;;;2.50;82.57
48926;BME280;39838;59.938;30.642;2022-11-15T06:44:01;100555.47;;;2.49;82.72
48926;BME280;39838;59.938;30.642;2022-11-15T06:46:28;100557.97;;;2.46;82.83
48926;BME280;39838;59.938;30.642;2022-11-15T06:48:55;100556.44;;;2.51;82.68
48926;BME280;39838;59.938;30.642;2022-11-15T06:51:24;100555.47;;;2.49;82.58
48926;BME280;39838;59.938;30.642;2022-11-15T06:53:51;100559.69;;;2.47;82.64
48926;BME280;39838;59.938;30.642;2022-11-15T06:56:18;100561.44;;;2.48;82.65
48926;BME280;39838;59.938;30.642;2022-11-15T06:58:45;100565.09;;;2.55;82.66
48926;BME280;39838;59.938;30.642;2022-11-15T07:01:13;100566.81;;;2.56;82.71
48926;BME280;39838;59.938;30.642;2022-11-15T07:03:41;100538.16;;;2.42;82.90
48926;BME280;39838;59.938;30.642;2022-11-15T07:06:09;100553.38;;;2.63;82.68
48926;BME280;39838;59.938;30.642;2022-11-15T07:08:38;100554.53;;;2.71;82.76
48926;BME280;39838;59.938;30.642;2022-11-15T07:11:08;100554.81;;;2.80;82.59
48926;BME280;39838;59.938;30.642;2022-11-15T07:13:35;100541.84;;;2.77;82.50
48926;BME280;39838;59.938;30.642;2022-11-15T07:16:03;100551.50;;;2.84;82.36
48926;BME280;39838;59.938;30.642;2022-11-15T07:18:32;100554.13;;;2.86;82.15
48926;BME280;39838;59.938;30.642;2022-11-15T07:21:01;100562.81;;;2.91;81.75
48926;BME280;39838;59.938;30.642;2022-11-15T07:23:28;100555.28;;;2.95;81.84
48926;BME280;39838;59.938;30.642;2022-11-15T07:25:58;100544.94;;;2.92;81.69
48926;BME280;39838;59.938;30.642;2022-11-15T07:28:26;100566.63;;;3.02;81.57
48926;BME280;39838;59.938;30.642;2022-11-15T07:30:53;100566.63;;;3.02;81.68
48926;BME280;39838;59.938;30.642;2022-11-15T07:33:21;100560.66;;;3.03;81.35
48926;BME280;39838;59.938;30.642;2022-11-15T07:35:48;100572.03;;;3.11;81.39
48926;BME280;39838;59.938;30.642;2022-11-15T07:38:16;100576.47;;;3.17;81.44
48926;BME280;39838;59.938;30.642;2022-11-15T07:40:45;100570.66;;;3.22;81.04
48926;BME280;39838;59.938;30.642;2022-11-15T07:43:14;100576.72;;;3.24;80.88
48926;BME280;39838;59.938;30.642;2022-11-15T07:45:42;100553.53;;;3.21;81.10
48926;BME280;39838;59.938;30.642;2022-11-15T07:48:10;100576.97;;;3.32;81.08
48926;BME280;39838;59.938;30.642;2022-11-15T07:50:40;100580.44;;;3.34;80.47
48926;BME280;39838;59.938;30.642;2022-11-15T07:53:09;100576.16;;;3.33;80.23
48926;BME280;39838;59.938;30.642;2022-11-15T07:55:36;100576.91;;;3.31;80.48
48926;BME280;39838;59.938;30.642;2022-11-15T07:58:05;100584.53;;;3.27;80.57
48926;BME280;39838;59.938;30.642;2022-11-15T08:00:34;100578.66;;;3.32;80.37
48926;BME280;39838;59.938;30.642;2022-11-15T08:03:03;100591.59;;;3.35;80.31
48926;BME280;39838;59.938;30.642;2022-11-15T08:05:30;100585.56;;;3.33;80.58
48926;BME280;39838;59.938;30.642;2022-11-15T08:07:58;100589.00;;;3.33;80.23
48926;BME280;39838;59.938;30.642;2022-11-15T08:10:25;100583.78;;;3.32;80.00
48926;BME280;39838;59.938;30.642;2022-11-15T08:12:59;100592.13;;;3.24;80.15
48926;BME280;39838;59.938;30.642;2022-11-15T08:15:27;100586.97;;;3.24;79.87
48926;BME280;39838;59.938;30.642;2022-11-15T08:17:57;100585.16;;;3.20;79.90
48926;BME280;39838;59.938;30.642;2022-11-15T08:20:26;100588.56;;;3.19;79.82
48926;BME280;39838;59.938;30.642;2022-11-15T08:22:55;100584.34;;;3.21;80.38
48926;BME280;39838;59.938;30.642;2022-11-15T08:25:22;100581.84;;;3.24;80.37
48926;BME280;39838;59.938;30.642;2022-11-15T08:27:52;100595.66;;;3.28;80.14
48926;BME280;39838;59.938;30.642;2022-11-15T08:30:20;100599.34;;;3.36;80.29
48926;BME280;39838;59.938;30.642;2022-11-15T08:32:47;100597.00;;;3.44;80.05
48926;BME280;39838;59.938;30.642;2022-11-15T08:35:16;100588.78;;;3.55;80.42
48926;BME280;39838;59.938;30.642;2022-11-15T08:37:44;100598.59;;;3.69;80.13
48926;BME280;39838;59.938;30.642;2022-11-15T08:40:11;100589.44;;;3.78;79.88
48926;BME280;39838;59.938;30.642;2022-11-15T08:42:39;100591.44;;;3.87;79.33
48926;BME280;39838;59.938;30.642;2022-11-15T08:45:08;100589.91;;;3.94;78.72
48926;BME280;39838;59.938;30.642;2022-11-15T08:47:35;100593.56;;;4.02;78.45
48926;BME280;39838;59.938;30.642;2022-11-15T08:50:03;100593.69;;;4.06;78.39
48926;BME280;39838;59.938;30.642;2022-11-15T08:52:31;100594.50;;;4.05;78.63
48926;BME280;39838;59.938;30.642;2022-11-15T08:54:59;100594.69;;;4.13;79.21
48926;BME280;39838;59.938;30.642;2022-11-15T08:57:28;100591.56;;;4.23;78.52
48926;BME280;39838;59.938;30.642;2022-11-15T08:59:56;100591.75;;;4.29;77.49
48926;BME280;39838;59.938;30.642;2022-11-15T09:02:23;100594.16;;;4.23;77.68
48926;BME280;39838;59.938;30.642;2022-11-15T09:04:50;100588.13;;;4.23;78.15
48926;BME280;39838;59.938;30.642;2022-11-15T09:07:17;100594.22;;;4.26;78.22
48926;BME280;39838;59.938;30.642;2022-11-15T09:09:46;100591.81;;;4.32;77.78
48926;BME280;39838;59.938;30.642;2022-11-15T09:12:13;100590.19;;;4.36;77.77
48926;BME280;39838;59.938;30.642;2022-11-15T09:14:40;100583.50;;;4.43;77.40
48926;BME280;39838;59.938;30.642;2022-11-15T09:17:08;100587.88;;;4.47;76.49
48926;BME280;39838;59.938;30.642;2022-11-15T09:19:35;100589.69;;;4.49;77.28
48926;BME280;39838;59.938;30.642;2022-11-15T09:22:05;100598.34;;;4.53;76.84
48926;BME280;39838;59.938;30.642;2022-11-15T09:24:33;100598.66;;;4.65;76.97
48926;BME280;39838;59.938;30.642;2022-11-15T09:27:02;100588.53;;;4.71;76.52
48926;BME280;39838;59.938;30.642;2022-11-15T09:29:29;100605.72;;;4.72;75.22
48926;BME280;39838;59.938;30.642;2022-11-15T09:31:56;100596.13;;;4.66;75.94
48926;BME280;39838;59.938;30.642;2022-11-15T09:34:23;100594.38;;;4.65;75.96
48926;BME280;39838;59.938;30.642;2022-11-15T09:36:50;100598.69;;;4.66;75.77
48926;BME280;39838;59.938;30.642;2022-11-15T09:39:18;100593.53;;;4.66;75.21
48926;BME280;39838;59.938;30.642;2022-11-15T09:42:04;100595.94;;;4.59;75.30
48926;BME280;39838;59.938;30.642;2022-11-15T09:44:45;100572.16;;;4.34;75.26
48926;BME280;39838;59.938;30.642;2022-11-15T09:47:38;100600.75;;;4.47;75.67
48926;BME280;39838;59.938;30.642;2022-11-15T09:50:11;100574.47;;;4.25;75.93
48926;BME280;39838;59.938;30.642;2022-11-15T09:52:42;100598.78;;;4.36;75.83
48926;BME280;39838;59.938;30.642;2022-11-15T09:55:12;100601.50;;;4.41;75.21
48926;BME280;39838;59.938;30.642;2022-11-15T09:57:55;100568.19;;;4.14;75.58
48926;BME280;39838;59.938;30.642;2022-11-15T10:00:32;100602.84;;;4.28;75.58
48926;BME280;39838;59.938;30.642;2022-11-15T10:03:10;100607.00;;;4.23;75.87
48926;BME280;39838;59.938;30.642;2022-11-15T10:05:39;100602.59;;;4.19;75.52
48926;BME280;39838;59.938;30.642;2022-11-15T10:08:17;100609.19;;;4.09;75.13
48926;BME280;39838;59.938;30.642;2022-11-15T10:10:51;100587.81;;;3.80;76.14
48926;BME280;39838;59.938;30.642;2022-11-15T10:13:25;100586.69;;;3.72;76.48
48926;BME280;39838;59.938;30.642;2022-11-15T10:15:54;100619.00;;;3.93;76.02
48926;BME280;39838;59.938;30.642;2022-11-15T10:18:29;100622.50;;;3.95;75.99
48926;BME280;39838;59.938;30.642;2022-11-15T10:21:10;100616.53;;;3.96;76.14
48926;BME280;39838;59.938;30.642;2022-11-15T10:23:42;100629.41;;;3.97;76.32
48926;BME280;39838;59.938;30.642;2022-11-15T10:26:11;100631.13;;;3.97;75.79
48926;BME280;39838;59.938;30.642;2022-11-15T10:28:42;100626.78;;;3.94;76.06
48926;BME280;39838;59.938;30.642;2022-11-15T10:31:22;100640.34;;;3.90;75.71
48926;BME280;39838;59.938;30.642;2022-11-15T10:33:49;100636.91;;;3.90;75.98
48926;BME280;39838;59.938;30.642;2022-11-15T10:36:22;100640.19;;;3.86;76.59
48926;BME280;39838;59.938;30.642;2022-11-15T10:38:55;100633.25;;;3.81;76.21
48926;BME280;39838;59.938;30.642;2022-11-15T10:41:30;100634.13;;;3.82;76.41
48926;BME280;39838;59.938;30.642;2022-11-15T10:44:19;100643.72;;;3.88;76.39
48926;BME280;39838;59.938;30.642;2022-11-15T10:46:47;100646.19;;;3.84;76.54
48926;BME280;39838;59.938;30.642;2022-11-15T10:49:18;100651.19;;;3.80;75.76
48926;BME280;39838;59.938;30.642;2022-11-15T10:51:48;100652.84;;;3.78;76.41
48926;BME280;39838;59.938;30.642;2022-11-15T10:54:22;100652.91;;;3.79;76.54
48926;BME280;39838;59.938;30.642;2022-11-15T10:56:52;100648.34;;;3.71;75.81
48926;BME280;39838;59.938;30.642;2022-11-15T10:59:26;100652.53;;;3.67;76.51
48926;BME280;39838;59.938;30.642;2022-11-15T11:01:54;100652.47;;;3.66;76.50
48926;BME280;39838;59.938;30.642;2022-11-15T11:04:22;100645.69;;;3.68;76.48
48926;BME280;39838;59.938;30.642;2022-11-15T11:06:50;100653.25;;;3.63;76.09
48926;BME280;39838;59.938;30.642;2022-11-15T11:09:30;100649.34;;;3.47;76.32
48926;BME280;39838;59.938;30.642;2022-11-15T11:11:57;100664.44;;;3.38;76.24
48926;BME280;39838;59.938;30.642;2022-11-15T11:14:29;100665.09;;;3.31;77.07
48926;BME280;39838;59.938;30.642;2022-11-15T11:17:02;100664.28;;;3.32;77.01
48926;BME280;39838;59.938;30.642;2022-11-15T11:19:53;100633.31;;;3.00;76.98
48926;BME280;39838;59.938;30.642;2022-11-15T11:22:26;100676.81;;;3.23;77.32
48926;BME280;39838;59.938;30.642;2022-11-15T11:25:15;100688.13;;;3.28;77.62
48926;BME280;39838;59.938;30.642;2022-11-15T11:27:57;100687.50;;;3.35;77.75
48926;BME280;39838;59.938;30.642;2022-11-15T11:30:34;100684.25;;;3.41;77.43
48926;BME280;39838;59.938;30.642;2022-11-15T11:33:13;100679.81;;;3.37;77.00
48926;BME280;39838;59.938;30.642;2022-11-15T11:35:50;100688.16;;;3.29;77.42
48926;BME280;39838;59.938;30.642;2022-11-15T11:38:39;100688.69;;;3.19;77.46
48926;BME280;39838;59.938;30.642;2022-11-15T11:41:15;100684.28;;;3.15;78.13
48926;BME280;39838;59.938;30.642;2022-11-15T11:43:55;100681.72;;;3.15;77.40
48926;BME280;39838;59.938;30.642;2022-11-15T11:46:50;100662.91;;;2.91;77.92
48926;BME280;39838;59.938;30.642;2022-11-15T11:49:23;100667.44;;;2.98;78.19
48926;BME280;39838;59.938;30.642;2022-11-15T11:51:56;100678.84;;;3.06;77.99
48926;BME280;39838;59.938;30.642;2022-11-15T11:54:32;100683.13;;;3.06;78.07
48926;BME280;39838;59.938;30.642;2022-11-15T11:57:06;100691.56;;;3.03;78.48
48926;BME280;39838;59.938;30.642;2022-11-15T11:59:39;100689.63;;;2.96;77.98
48926;BME280;39838;59.938;30.642;2022-11-15T12:02:16;100692.06;;;2.91;78.07
48926;BME280;39838;59.938;30.642;2022-11-15T12:04:49;100687.66;;;2.89;78.68
48926;BME280;39838;59.938;30.642;2022-11-15T12:07:20;100697.97;;;2.90;78.52
48926;BME280;39838;59.938;30.642;2022-11-15T12:09:53;100697.88;;;2.87;78.59
48926;BME280;39838;59.938;30.642;2022-11-15T12:12:25;100707.38;;;2.90;78.75
48926;BME280;39838;59.938;30.642;2022-11-15T12:14:57;100707.28;;;2.87;78.76
48926;BME280;39838;59.938;30.642;2022-11-15T12:17:29;100704.28;;;2.74;78.67
48926;BME280;39838;59.938;30.642;2022-11-15T12:19:58;100708.47;;;2.71;78.97
48926;BME280;39838;59.938;30.642;2022-11-15T12:22:35;100699.53;;;2.61;79.47
48926;BME280;39838;59.938;30.642;2022-11-15T12:25:06;100697.69;;;2.57;79.35
48926;BME280;39838;59.938;30.642;2022-11-15T12:27:40;100678.31;;;2.41;79.50
48926;BME280;39838;59.938;30.642;2022-11-15T12:30:11;100714.94;;;2.61;79.73
48926;BME280;39838;59.938;30.642;2022-11-15T12:32:50;100705.75;;;2.68;79.96
48926;BME280;39838;59.938;30.642;2022-11-15T12:35:25;100700.53;;;2.65;79.53
48926;BME280;39838;59.938;30.642;2022-11-15T12:37:54;100709.81;;;2.61;79.29
48926;BME280;39838;59.938;30.642;2022-11-15T12:40:32;100712.97;;;2.54;79.64
48926;BME280;39838;59.938;30.642;2022-11-15T12:43:05;100685.53;;;2.28;79.79
48926;BME280;39838;59.938;30.642;2022-11-15T12:45:35;100702.88;;;2.35;79.81
48926;BME280;39838;59.938;30.642;2022-11-15T12:51:20;100693.16;;;2.26;80.14
48926;BME280;39838;59.938;30.642;2022-11-15T12:53:48;100712.66;;;2.45;80.12
48926;BME280;39838;59.938;30.642;2022-11-15T12:56:22;100704.84;;;2.42;80.10
48926;BME280;39838;59.938;30.642;2022-11-15T12:58:53;100722.09;;;2.46;79.92
48926;BME280;39838;59.938;30.642;2022-11-15T13:01:58;100715.22;;;2.45;79.72
48926;BME280;39838;59.938;30.642;2022-11-15T13:04:28;100710.28;;;2.27;79.63
48926;BME280;39838;59.938;30.642;2022-11-15T13:06:59;100698.72;;;2.14;80.05
48926;BME280;39838;59.938;30.642;2022-11-15T13:09:54;100718.84;;;2.28;79.98
48926;BME280;39838;59.938;30.642;2022-11-15T13:12:54;100735.06;;;2.27;80.11
48926;BME280;39838;59.938;30.642;2022-11-15T13:15:36;100731.06;;;2.11;79.92
48926;BME280;39838;59.938;30.642;2022-11-15T13:18:30;100739.38;;;2.05;80.53